createdAt,value
2023-02-18T00:02:23.673Z,28.33
2023-02-18T00:05:10.324Z,26.25
2023-02-18T00:07:56.515Z,27.35
2023-02-18T00:10:43.507Z,27.10
2023-02-18T00:13:29.305Z,24.70
2023-02-18T00:16:15.503Z,25.67
2023-02-18T00:19:04.680Z,29.30
2023-02-18T00:21:51.279Z,27.40
2023-02-18T00:24:37.456Z,29.92
2023-02-18T00:27:24.064Z,25.67
2023-02-18T00:30:11.202Z,27.27
2023-02-18T00:32:57.785Z,21.17
2023-02-18T00:35:43.807Z,20.17
2023-02-18T00:38:30.727Z,19.60
2023-02-18T00:41:17.082Z,23.02
2023-02-18T00:44:03.792Z,20.05
2023-02-18T00:46:50.014Z,14.65
2023-02-18T00:49:36.122Z,17.40
2023-02-18T00:52:23.392Z,15.55
2023-02-18T00:55:09.937Z,14.05
2023-02-18T00:57:56.244Z,19.08
2023-02-18T01:00:42.325Z,16.05
2023-02-18T01:03:28.675Z,13.43
2023-02-18T01:06:14.940Z,16.90
2023-02-18T01:09:01.798Z,15.25
2023-02-18T01:11:49.542Z,12.68
2023-02-18T01:14:39.985Z,13.02
2023-02-18T01:17:25.639Z,12.65
2023-02-18T01:20:13.180Z,14.07
2023-02-18T01:22:59.572Z,12.85
2023-02-18T01:25:46.762Z,16.13
2023-02-18T01:28:32.793Z,9.23
2023-02-18T01:31:19.799Z,12.05
2023-02-18T01:34:05.964Z,15.77
2023-02-18T01:36:52.096Z,13.43
2023-02-18T01:39:37.974Z,12.25
2023-02-18T01:42:29.512Z,13.40
2023-02-18T01:45:34.410Z,10.60
2023-02-18T01:48:40.405Z,13.18
2023-02-18T01:51:44.181Z,16.63
2023-02-18T01:54:40.274Z,19.60
2023-02-18T01:57:29.926Z,11.10
2023-02-18T02:00:20.676Z,14.45
2023-02-18T02:03:06.542Z,12.68
2023-02-18T02:05:52.630Z,14.70
2023-02-18T02:08:38.823Z,11.00
2023-02-18T02:12:00.976Z,13.75
2023-02-18T02:15:04.079Z,10.50
2023-02-18T02:18:15.126Z,13.60
2023-02-18T02:21:09.906Z,14.10
2023-02-18T02:24:13.833Z,13.00
2023-02-18T02:27:37.117Z,11.00
2023-02-18T02:30:23.237Z,10.65
2023-02-18T02:33:27.860Z,12.55
2023-02-18T02:36:14.830Z,11.05
2023-02-18T02:39:22.241Z,13.65
2023-02-18T02:42:26.362Z,13.30
2023-02-18T02:45:56.164Z,10.57
2023-02-18T02:49:06.150Z,11.55
2023-02-18T02:52:13.187Z,11.02
2023-02-18T02:54:59.870Z,11.30
2023-02-18T02:57:49.821Z,10.50
2023-02-18T03:01:18.377Z,8.55
2023-02-18T03:04:20.349Z,12.35
2023-02-18T03:07:39.867Z,7.68
2023-02-18T03:11:11.043Z,10.02
2023-02-18T03:14:06.625Z,9.50
2023-02-18T03:17:15.813Z,7.57
2023-02-18T03:20:21.314Z,11.48
2023-02-18T03:23:11.943Z,6.68
2023-02-18T03:26:00.984Z,7.75
2023-02-18T03:28:51.582Z,7.20
2023-02-18T03:31:42.399Z,6.78
2023-02-18T03:34:37.423Z,7.30
2023-02-18T03:37:24.192Z,7.43
2023-02-18T03:40:12.086Z,5.97
2023-02-18T03:43:00.315Z,8.25
2023-02-18T03:45:47.074Z,5.35
2023-02-18T03:48:35.553Z,7.47
2023-02-18T03:51:21.943Z,7.53
2023-02-18T03:54:12.232Z,4.50
2023-02-18T03:57:00.374Z,7.55
2023-02-18T03:59:46.592Z,5.22
2023-02-18T04:02:34.094Z,7.03
2023-02-18T04:05:20.030Z,6.80
2023-02-18T04:08:06.383Z,5.50
2023-02-18T04:10:53.266Z,4.53
2023-02-18T04:13:39.416Z,5.22
2023-02-18T04:16:26.026Z,6.70
2023-02-18T04:19:12.104Z,5.95
2023-02-18T04:21:58.925Z,4.75
2023-02-18T04:24:44.981Z,4.40
2023-02-18T04:27:31.503Z,4.22
2023-02-18T04:30:19.155Z,4.90
2023-02-18T04:33:05.154Z,6.78
2023-02-18T04:35:51.121Z,3.63
2023-02-18T04:38:37.853Z,4.30
2023-02-18T04:41:24.378Z,5.10
2023-02-18T04:44:10.431Z,4.40
2023-02-18T04:46:56.380Z,4.10
2023-02-18T04:49:43.032Z,2.72
2023-02-18T04:52:28.668Z,5.28
2023-02-18T04:55:15.124Z,3.80
2023-02-18T04:58:01.108Z,2.75
2023-02-18T05:00:47.470Z,3.63
2023-02-18T05:03:33.845Z,2.97
2023-02-18T05:06:20.338Z,4.47
2023-02-18T05:09:07.138Z,2.90
2023-02-18T05:11:53.106Z,4.65
2023-02-18T05:14:38.828Z,3.80
2023-02-18T05:17:25.145Z,3.50
2023-02-18T05:20:12.263Z,3.15
2023-02-18T05:22:58.350Z,2.00
2023-02-18T05:25:44.421Z,2.50
2023-02-18T05:28:31.165Z,3.60
2023-02-18T05:31:20.007Z,2.63
2023-02-18T05:34:06.087Z,5.43
2023-02-18T05:36:52.161Z,4.97
2023-02-18T05:39:38.394Z,3.00
2023-02-18T05:42:25.098Z,5.28
2023-02-18T05:45:11.607Z,4.43
2023-02-18T05:47:58.057Z,5.95
2023-02-18T05:50:44.163Z,3.83
2023-02-18T05:53:30.336Z,2.75
2023-02-18T05:56:16.121Z,6.28
2023-02-18T05:59:02.237Z,4.15
2023-02-18T06:01:48.976Z,3.80
2023-02-18T06:04:35.121Z,5.80
2023-02-18T06:07:21.463Z,5.97
2023-02-18T06:10:08.030Z,7.18
2023-02-18T06:12:54.756Z,6.85
2023-02-18T06:15:40.950Z,5.80
2023-02-18T06:18:27.170Z,3.80
2023-02-18T06:21:13.776Z,5.63
2023-02-18T06:24:00.661Z,3.60
2023-02-18T06:26:46.543Z,2.42
2023-02-18T06:29:33.151Z,3.15
2023-02-18T06:32:19.740Z,2.25
2023-02-18T06:35:05.896Z,1.85
2023-02-18T06:37:52.493Z,3.90
2023-02-18T06:40:38.342Z,3.53
2023-02-18T06:43:24.987Z,1.45
2023-02-18T06:46:11.569Z,2.20
2023-02-18T06:48:58.058Z,2.15
2023-02-18T06:51:47.316Z,3.45
2023-02-18T06:54:34.394Z,2.67
2023-02-18T06:57:21.193Z,2.75
2023-02-18T07:00:08.096Z,1.40
2023-02-18T07:02:54.880Z,3.60
2023-02-18T07:05:42.655Z,1.75
2023-02-18T07:08:31.497Z,5.15
2023-02-18T07:11:17.382Z,4.35
2023-02-18T07:14:03.517Z,2.47
2023-02-18T07:16:50.111Z,2.03
2023-02-18T07:19:36.649Z,2.13
2023-02-18T07:22:23.069Z,2.33
2023-02-18T07:25:10.735Z,4.15
2023-02-18T07:27:56.361Z,3.20
2023-02-18T07:30:42.776Z,1.70
2023-02-18T07:33:29.247Z,3.17
2023-02-18T07:36:15.291Z,2.08
2023-02-18T07:39:01.869Z,2.95
2023-02-18T07:41:49.138Z,2.17
2023-02-18T07:44:37.230Z,1.88
2023-02-18T07:47:24.148Z,1.73
2023-02-18T07:50:11.165Z,2.58
2023-02-18T07:52:57.688Z,2.10
2023-02-18T07:55:50.631Z,2.38
2023-02-18T07:58:38.688Z,2.65
2023-02-18T08:01:25.283Z,3.28
2023-02-18T08:04:11.646Z,2.03
2023-02-18T08:06:57.501Z,1.85
2023-02-18T08:09:43.776Z,2.42
2023-02-18T08:12:29.562Z,3.42
2023-02-18T08:15:15.899Z,3.45
2023-02-18T08:18:02.484Z,2.05
2023-02-18T08:20:48.641Z,2.47
2023-02-18T08:23:35.325Z,2.35
2023-02-18T08:26:22.235Z,1.58
2023-02-18T08:29:08.888Z,3.28
2023-02-18T08:31:58.088Z,1.63
2023-02-18T08:34:44.979Z,1.05
2023-02-18T08:37:31.371Z,3.53
2023-02-18T08:40:37.654Z,1.50
2023-02-18T08:43:24.401Z,1.75
2023-02-18T08:46:16.022Z,2.80
2023-02-18T08:49:04.379Z,1.50
2023-02-18T08:51:51.156Z,1.00
2023-02-18T08:54:37.918Z,1.70
2023-02-18T08:57:24.447Z,1.25
2023-02-18T09:00:13.983Z,0.98
2023-02-18T09:03:01.843Z,0.40
2023-02-18T09:05:47.649Z,0.35
2023-02-18T09:08:34.849Z,0.60
2023-02-18T09:11:21.266Z,1.02
2023-02-18T09:14:07.295Z,0.65
2023-02-18T09:16:53.441Z,1.40
2023-02-18T09:19:40.406Z,2.38
2023-02-18T09:22:52.351Z,0.65
2023-02-18T09:25:40.883Z,0.68
2023-02-18T09:28:26.852Z,1.00
2023-02-18T09:31:35.869Z,1.05
2023-02-18T09:34:52.848Z,0.77
2023-02-18T09:37:42.254Z,0.57
2023-02-18T09:40:32.869Z,0.40
2023-02-18T09:43:26.839Z,0.85
2023-02-18T09:46:55.450Z,1.20
2023-02-18T09:49:52.319Z,0.30
2023-02-18T09:52:40.071Z,2.53
2023-02-18T09:55:29.232Z,1.27
2023-02-18T09:58:21.156Z,1.23
2023-02-18T10:01:12.111Z,0.77
2023-02-18T10:04:24.723Z,1.60
2023-02-18T10:07:21.943Z,3.05
2023-02-18T10:10:26.648Z,1.20
2023-02-18T10:13:17.151Z,1.67
2023-02-18T10:16:05.135Z,1.10
2023-02-18T10:19:22.796Z,1.83
2023-02-18T10:22:14.694Z,1.17
2023-02-18T10:25:03.939Z,0.98
2023-02-18T10:27:53.143Z,2.40
2023-02-18T10:30:47.034Z,2.35
2023-02-18T10:33:40.847Z,1.60
2023-02-18T10:36:46.729Z,1.13
2023-02-18T10:39:57.471Z,1.55
2023-02-18T10:42:50.086Z,1.48
2023-02-18T10:46:01.921Z,1.10
2023-02-18T10:49:06.755Z,2.28
2023-02-18T10:51:58.119Z,2.42
2023-02-18T10:55:10.165Z,2.65
2023-02-18T10:57:57.900Z,1.95
2023-02-18T11:00:45.273Z,0.95
2023-02-18T11:04:13.812Z,1.75
2023-02-18T11:07:05.543Z,1.05
2023-02-18T11:10:34.798Z,1.23
2023-02-18T11:13:31.973Z,1.27
2023-02-18T11:16:23.255Z,0.63
2023-02-18T11:19:34.880Z,1.17
2023-02-18T11:22:28.946Z,1.00
2023-02-18T11:29:20.083Z,0.70
2023-02-18T11:32:13.279Z,1.30
2023-02-18T11:34:59.847Z,1.88
2023-02-18T11:37:45.991Z,0.88
2023-02-18T11:40:36.704Z,1.75
2023-02-18T11:43:23.044Z,0.65
2023-02-18T11:46:14.212Z,0.80
2023-02-18T11:49:23.178Z,0.77
2023-02-18T11:52:19.564Z,0.85
2023-02-18T11:55:22.719Z,0.70
2023-02-18T12:01:03.450Z,1.83
2023-02-18T12:03:56.012Z,1.30
2023-02-18T12:06:54.146Z,0.93
2023-02-18T12:09:49.245Z,1.42
2023-02-18T12:12:46.394Z,1.60
2023-02-18T12:15:54.669Z,0.95
2023-02-18T12:18:54.973Z,1.85
2023-02-18T12:21:57.558Z,1.35
2023-02-18T12:24:55.846Z,1.30
2023-02-18T12:28:11.908Z,5.57
2023-02-18T12:31:00.825Z,1.23
2023-02-18T12:34:10.462Z,1.35
2023-02-18T12:37:41.160Z,1.95
2023-02-18T12:40:52.970Z,2.42
2023-02-18T12:43:56.650Z,0.68
2023-02-18T12:49:59.475Z,1.30
2023-02-18T12:53:07.133Z,1.25
2023-02-18T12:56:30.115Z,1.33
2023-02-18T12:59:53.692Z,1.60
2023-02-18T13:03:10.259Z,0.82
2023-02-18T13:06:17.692Z,2.40
2023-02-18T13:09:15.297Z,2.15
2023-02-18T13:12:26.064Z,0.93
2023-02-18T13:15:40.434Z,0.70
2023-02-18T13:18:40.931Z,0.82
2023-02-18T13:21:28.170Z,0.90
2023-02-18T13:24:24.184Z,3.00
2023-02-18T13:27:23.827Z,1.92
2023-02-18T13:30:38.088Z,1.73
2023-02-18T13:33:55.997Z,2.50
2023-02-18T13:36:58.448Z,0.68
2023-02-18T13:39:58.152Z,1.38
2023-02-18T13:42:45.724Z,1.73
2023-02-18T13:45:33.408Z,2.53
2023-02-18T13:48:28.780Z,0.90
2023-02-18T13:51:29.978Z,0.82
2023-02-18T13:54:29.623Z,1.33
2023-02-18T13:57:29.386Z,1.00
2023-02-18T14:00:25.316Z,1.75
2023-02-18T14:03:38.258Z,1.73
2023-02-18T14:06:29.696Z,1.08
2023-02-18T14:09:16.364Z,1.08
2023-02-18T14:12:20.514Z,0.55
2023-02-18T14:15:18.944Z,1.50
2023-02-18T14:18:14.824Z,1.63
2023-02-18T14:21:14.675Z,1.13
2023-02-18T14:24:06.040Z,3.45
2023-02-18T14:26:53.448Z,2.30
2023-02-18T14:29:40.738Z,1.73
2023-02-18T14:32:26.867Z,1.95
2023-02-18T14:35:28.063Z,2.30
2023-02-18T14:38:22.568Z,1.50
2023-02-18T14:41:41.439Z,1.35
2023-02-18T14:44:47.943Z,2.83
2023-02-18T14:48:14.159Z,3.05
2023-02-18T14:51:01.811Z,2.53
2023-02-18T14:53:48.661Z,3.35
2023-02-18T14:57:00.393Z,2.33
2023-02-18T14:59:48.579Z,4.68
2023-02-18T15:02:38.785Z,1.98
2023-02-18T15:05:30.077Z,3.60
2023-02-18T15:08:22.838Z,3.55
2023-02-18T15:11:09.711Z,3.55
2023-02-18T15:13:56.854Z,2.40
2023-02-18T15:16:44.999Z,4.88
2023-02-18T15:19:41.181Z,3.22
2023-02-18T15:22:31.883Z,5.60
2023-02-18T15:25:17.982Z,3.88
2023-02-18T15:28:05.040Z,2.10
2023-02-18T15:30:51.922Z,4.03
2023-02-18T15:33:44.863Z,1.95
2023-02-18T15:36:33.219Z,3.67
2023-02-18T15:39:20.169Z,1.85
2023-02-18T15:42:19.473Z,3.17
2023-02-18T15:45:30.570Z,4.82
2023-02-18T15:48:41.812Z,3.38
2023-02-18T15:51:31.725Z,4.03
2023-02-18T15:54:21.287Z,4.03
2023-02-18T15:57:09.658Z,1.75
2023-02-18T16:00:04.483Z,1.98
2023-02-18T16:02:56.626Z,2.70
2023-02-18T16:05:43.058Z,2.63
2023-02-18T16:08:29.791Z,1.30
2023-02-18T16:11:15.849Z,6.30
2023-02-18T16:14:02.411Z,3.15
2023-02-18T16:17:15.054Z,2.63
2023-02-18T16:20:18.388Z,2.05
2023-02-18T16:23:12.319Z,3.15
2023-02-18T16:26:19.937Z,2.95
2023-02-18T16:29:36.435Z,4.13
2023-02-18T16:32:22.918Z,2.17
2023-02-18T16:35:10.192Z,3.15
2023-02-18T16:38:00.174Z,2.47
2023-02-18T16:40:45.900Z,4.25
2023-02-18T16:43:33.364Z,2.22
2023-02-18T16:46:22.759Z,1.80
2023-02-18T16:49:14.459Z,2.28
2023-02-18T16:52:08.153Z,1.90
2023-02-18T16:57:42.061Z,1.50
2023-02-18T17:00:28.278Z,1.60
2023-02-18T17:03:14.345Z,1.67
2023-02-18T17:06:00.697Z,2.08
2023-02-18T17:08:48.516Z,1.65
2023-02-18T17:11:36.399Z,2.30
2023-02-18T17:14:23.438Z,2.95
2023-02-18T17:17:14.192Z,4.13
2023-02-18T17:20:00.207Z,3.08
2023-02-18T17:22:46.249Z,4.30
2023-02-18T17:25:58.161Z,3.17
2023-02-18T17:28:44.560Z,1.25
2023-02-18T17:31:38.182Z,3.63
2023-02-18T17:34:34.506Z,3.97
2023-02-18T17:38:34.328Z,4.07
2023-02-18T17:41:20.213Z,7.72
2023-02-18T17:44:20.757Z,6.57
2023-02-18T17:47:06.894Z,4.20
2023-02-18T17:49:53.489Z,4.57
2023-02-18T17:52:39.852Z,6.25
2023-02-18T17:55:28.732Z,4.43
2023-02-18T17:58:15.941Z,2.58
2023-02-18T18:01:01.659Z,3.80
2023-02-18T18:03:47.715Z,1.77
2023-02-18T18:06:36.759Z,3.60
2023-02-18T18:09:23.777Z,2.92
2023-02-18T18:12:15.625Z,1.95
2023-02-18T18:15:03.743Z,3.22
2023-02-18T18:17:50.022Z,8.10
2023-02-18T18:20:36.604Z,2.33
2023-02-18T18:23:23.058Z,3.45
2023-02-18T18:26:09.952Z,2.75
2023-02-18T18:28:55.741Z,3.63
2023-02-18T18:31:43.492Z,1.17
2023-02-18T18:34:30.154Z,4.72
2023-02-18T18:37:16.961Z,2.45
2023-02-18T18:40:03.155Z,2.35
2023-02-18T18:42:49.858Z,2.70
2023-02-18T18:45:40.520Z,1.65
2023-02-18T18:48:26.519Z,2.13
2023-02-18T18:51:19.808Z,2.63
2023-02-18T18:54:06.172Z,3.22
2023-02-18T18:56:54.167Z,5.88
2023-02-18T18:59:40.045Z,3.53
2023-02-18T19:02:26.241Z,2.85
2023-02-18T19:05:21.627Z,2.72
2023-02-18T19:08:10.730Z,3.42
2023-02-18T19:10:58.112Z,3.67
2023-02-18T19:13:46.007Z,3.40
2023-02-18T19:16:39.975Z,2.75
2023-02-18T19:19:25.761Z,2.45
2023-02-18T19:22:11.951Z,4.90
2023-02-18T19:24:57.989Z,1.08
2023-02-18T19:27:46.440Z,3.00
2023-02-18T19:30:35.568Z,3.80
2023-02-18T19:33:22.471Z,1.85
2023-02-18T19:36:17.623Z,3.05
2023-02-18T19:39:04.500Z,3.53
2023-02-18T19:41:50.409Z,2.38
2023-02-18T19:44:37.077Z,3.95
2023-02-18T19:47:25.251Z,3.83
2023-02-18T19:50:14.785Z,3.58
2023-02-18T19:53:01.633Z,1.13
2023-02-18T19:55:57.418Z,2.67
2023-02-18T19:58:47.577Z,3.58
2023-02-18T20:01:34.203Z,2.72
2023-02-18T20:04:20.921Z,1.73
2023-02-18T20:07:07.122Z,3.22
2023-02-18T20:09:53.517Z,3.22
2023-02-18T20:12:39.738Z,3.10
2023-02-18T20:15:28.537Z,1.95
2023-02-18T20:18:15.134Z,2.90
2023-02-18T20:21:01.331Z,2.92
2023-02-18T20:23:48.724Z,2.75
2023-02-18T20:26:35.384Z,1.02
2023-02-18T20:29:22.185Z,2.15
2023-02-18T20:32:08.842Z,2.08
2023-02-18T20:34:57.048Z,3.75
2023-02-18T20:37:43.356Z,3.13
2023-02-18T20:40:29.584Z,8.48
2023-02-18T20:43:15.716Z,2.20
2023-02-18T20:46:07.666Z,2.67
2023-02-18T20:48:53.739Z,2.42
2023-02-18T20:51:40.491Z,4.35
2023-02-18T20:54:29.406Z,2.45
2023-02-18T20:57:16.899Z,3.25
2023-02-18T21:00:05.061Z,4.78
2023-02-18T21:02:51.711Z,2.25
2023-02-18T21:05:37.701Z,3.58
2023-02-18T21:08:24.839Z,3.30
2023-02-18T21:11:17.773Z,5.88
2023-02-18T21:14:05.406Z,4.60
2023-02-18T21:16:51.968Z,3.22
2023-02-18T21:19:38.842Z,1.95
2023-02-18T21:22:24.832Z,4.22
2023-02-18T21:25:13.133Z,3.72
2023-02-18T21:27:59.953Z,6.20
2023-02-18T21:30:46.387Z,3.38
2023-02-18T21:33:32.266Z,5.97
2023-02-18T21:36:19.552Z,5.88
2023-02-18T21:39:07.885Z,3.35
2023-02-18T21:41:53.645Z,6.32
2023-02-18T21:44:42.556Z,5.15
2023-02-18T21:47:29.285Z,11.68
2023-02-18T21:50:15.866Z,6.50
2023-02-18T21:53:04.459Z,3.55
2023-02-18T21:56:03.435Z,6.40
2023-02-18T21:58:50.536Z,5.15
2023-02-18T22:01:36.157Z,3.33
2023-02-18T22:04:25.630Z,4.82
2023-02-18T22:07:12.120Z,4.65
2023-02-18T22:09:57.937Z,5.53
2023-02-18T22:12:43.919Z,3.88
2023-02-18T22:15:30.054Z,6.18
2023-02-18T22:18:17.028Z,3.50
2023-02-18T22:21:09.668Z,6.68
2023-02-18T22:23:56.266Z,4.60
2023-02-18T22:26:44.329Z,4.35
2023-02-18T22:29:31.548Z,6.45
2023-02-18T22:32:17.715Z,4.80
2023-02-18T22:35:04.857Z,6.85
2023-02-18T22:37:50.879Z,5.85
2023-02-18T22:40:37.697Z,4.22
2023-02-18T22:43:24.345Z,6.35
2023-02-18T22:46:16.167Z,4.50
2023-02-18T22:49:02.740Z,3.03
2023-02-18T22:51:52.480Z,4.63
2023-02-18T22:54:39.034Z,2.75
2023-02-18T22:57:27.797Z,5.05
2023-02-18T23:00:15.743Z,3.05
2023-02-18T23:03:01.651Z,6.60
2023-02-18T23:05:47.980Z,5.05
2023-02-18T23:08:34.434Z,2.67
2023-02-18T23:11:21.437Z,7.47
2023-02-18T23:14:20.288Z,6.05
2023-02-18T23:17:15.807Z,7.07
2023-02-18T23:20:01.933Z,5.60
2023-02-18T23:22:48.012Z,4.80
2023-02-18T23:25:34.929Z,2.35
2023-02-18T23:28:21.229Z,3.80
2023-02-18T23:31:07.662Z,3.20
2023-02-18T23:33:56.565Z,3.50
2023-02-18T23:36:43.596Z,5.15
2023-02-18T23:39:29.807Z,5.90
2023-02-18T23:42:17.131Z,5.97
2023-02-18T23:45:03.236Z,4.55
2023-02-18T23:47:49.361Z,4.75
2023-02-18T23:50:36.054Z,6.78
2023-02-18T23:53:26.163Z,4.43
2023-02-18T23:56:23.716Z,3.65
2023-02-18T23:59:11.876Z,7.75
